Archival Weather

Dane County Rgnl/Truax Fld

Madison, Wisconsin (KMSN)

Report from: Sunday, April 21, 2024 1:53 PM CDT
Current time: Tuesday, May 21, 2024 11:03 AM CDT

Current weather – Weather history – Daily summaries
Weather forecast

Temperature12.8°C (55.0°F)
Dew point-3.3°C (26.1°F)
Winds 6 kts (3.1 m/s, 6.9 mph) Vrb
Wind gusts 19 kts (9.8 m/s, 21.9 mph)
Winds variableWinds variable
Visibility10 mi. (16.1 km)
Clouds Few clouds 6,500 ft. (1,981 m)
Few clouds 25,000 ft. (7,620 m)
Altimeter30.13 in.Hg (1020 mB)
Relative humidity32 %
Density altitude-438 ft. (-134 m)
Sea-level pressure102.1 kPa (1021 mB, 30.14 in.Hg)
Remarks System requires maintenance
Automated weather observing station with precipitation discriminator
Flight conditions Visual Meteorological Conditions
Raw dataKMSN 211853Z VRB06G19KT 10SM FEW065 FEW250 13/M03 A3013 RMK AO2 SLP208 T01281033 $
An error has occurred. This application may no longer respond until reloaded. Reload 🗙